createdAt,value
2022-10-25T00:01:17.049Z,1.05
2022-10-25T00:03:45.698Z,1.10
2022-10-25T00:06:14.880Z,1.02
2022-10-25T00:08:43.539Z,1.40
2022-10-25T00:11:19.807Z,1.50
2022-10-25T00:13:51.487Z,1.00
2022-10-25T00:16:23.066Z,1.10
2022-10-25T00:18:52.044Z,1.15
2022-10-25T00:21:21.085Z,1.17
2022-10-25T00:23:49.797Z,0.90
2022-10-25T00:26:18.674Z,1.00
2022-10-25T00:28:47.484Z,0.88
2022-10-25T00:31:18.750Z,0.70
2022-10-25T00:33:47.547Z,1.55
2022-10-25T00:36:19.225Z,1.30
2022-10-25T00:38:48.137Z,1.08
2022-10-25T00:41:19.239Z,1.08
2022-10-25T00:43:49.788Z,1.30
2022-10-25T00:46:26.360Z,0.82
2022-10-25T00:48:59.985Z,0.80
2022-10-25T00:51:35.705Z,1.77
2022-10-25T00:54:04.373Z,0.80
2022-10-25T00:56:39.016Z,1.25
2022-10-25T00:59:13.407Z,1.17
2022-10-25T01:01:43.508Z,1.33
2022-10-25T01:04:16.523Z,1.02
2022-10-25T01:06:50.223Z,0.68
2022-10-25T01:09:23.197Z,0.88
2022-10-25T01:11:51.821Z,0.75
2022-10-25T01:14:20.559Z,0.70
2022-10-25T01:16:58.932Z,0.85
2022-10-25T01:19:53.771Z,0.90
2022-10-25T01:22:31.415Z,1.00
2022-10-25T01:25:29.299Z,0.80
2022-10-25T01:28:08.316Z,0.80
2022-10-25T01:31:18.665Z,0.75
2022-10-25T01:33:56.479Z,0.70
2022-10-25T01:36:38.193Z,1.17
2022-10-25T01:39:13.351Z,0.80
2022-10-25T01:41:52.107Z,0.85
2022-10-25T01:44:37.969Z,0.77
2022-10-25T01:47:14.777Z,0.93
2022-10-25T01:49:49.072Z,0.80
2022-10-25T01:52:21.892Z,0.80
2022-10-25T01:54:50.920Z,0.95
2022-10-25T01:57:48.816Z,0.93
2022-10-25T02:00:20.199Z,0.77
2022-10-25T02:03:07.388Z,0.88
2022-10-25T02:05:47.085Z,0.95
2022-10-25T02:08:28.959Z,0.82
2022-10-25T02:11:07.585Z,1.10
2022-10-25T02:13:52.340Z,1.63
2022-10-25T02:16:27.299Z,1.98
2022-10-25T02:19:02.115Z,1.27
2022-10-25T02:24:07.715Z,0.80
2022-10-25T02:26:37.747Z,0.90
2022-10-25T02:29:08.081Z,0.77
2022-10-25T02:31:38.620Z,0.90
2022-10-25T02:34:08.173Z,0.80
2022-10-25T02:36:36.654Z,0.90
2022-10-25T02:39:08.072Z,0.85
2022-10-25T02:41:36.648Z,1.67
2022-10-25T02:44:05.310Z,1.23
2022-10-25T02:46:33.577Z,0.90
2022-10-25T02:49:02.071Z,1.00
2022-10-25T02:51:31.911Z,1.30
2022-10-25T02:54:00.323Z,1.00
2022-10-25T02:56:28.703Z,1.40
2022-10-25T02:58:58.799Z,3.80
2022-10-25T03:01:27.644Z,3.10
2022-10-25T03:03:56.303Z,3.33
2022-10-25T03:06:24.867Z,4.90
2022-10-25T03:08:54.461Z,3.78
2022-10-25T03:11:22.720Z,2.17
2022-10-25T03:13:51.208Z,1.55
2022-10-25T03:16:19.783Z,1.80
2022-10-25T03:18:48.351Z,2.05
2022-10-25T03:21:16.901Z,2.88
2022-10-25T03:23:45.396Z,3.53
2022-10-25T03:26:14.967Z,2.88
2022-10-25T03:28:43.555Z,2.53
2022-10-25T03:31:13.706Z,1.92
2022-10-25T03:33:42.379Z,1.85
2022-10-25T03:36:11.450Z,1.15
2022-10-25T03:38:40.162Z,1.30
2022-10-25T03:41:08.638Z,1.42
2022-10-25T03:43:38.162Z,1.35
2022-10-25T03:46:06.819Z,1.80
2022-10-25T03:48:35.364Z,1.58
2022-10-25T03:51:03.891Z,1.52
2022-10-25T03:53:32.339Z,1.48
2022-10-25T03:56:00.796Z,1.60
2022-10-25T03:58:29.289Z,1.35
2022-10-25T04:01:00.018Z,1.83
2022-10-25T04:03:28.937Z,1.90
2022-10-25T04:05:57.490Z,2.00
2022-10-25T04:08:26.119Z,1.45
2022-10-25T04:10:54.682Z,1.60
2022-10-25T04:13:25.171Z,1.73
2022-10-25T04:15:53.715Z,1.35
2022-10-25T04:18:23.351Z,1.67
2022-10-25T04:20:51.871Z,2.13
2022-10-25T04:23:21.226Z,2.13
2022-10-25T04:25:49.774Z,2.45
2022-10-25T04:28:18.290Z,2.17
2022-10-25T04:30:46.536Z,1.80
2022-10-25T04:33:15.042Z,2.83
2022-10-25T04:35:44.621Z,1.73
2022-10-25T04:38:13.198Z,2.30
2022-10-25T04:40:41.740Z,2.33
2022-10-25T04:43:09.953Z,2.25
2022-10-25T04:45:38.642Z,2.08
2022-10-25T04:48:07.348Z,2.95
2022-10-25T04:50:35.596Z,2.30
2022-10-25T04:53:06.160Z,1.83
2022-10-25T04:55:34.665Z,2.55
2022-10-25T04:58:03.145Z,2.38
2022-10-25T05:00:31.741Z,1.70
2022-10-25T05:03:00.294Z,2.33
2022-10-25T05:05:28.996Z,2.33
2022-10-25T05:07:57.524Z,1.90
2022-10-25T05:10:27.149Z,2.25
2022-10-25T05:12:55.998Z,2.22
2022-10-25T05:15:24.703Z,2.08
2022-10-25T05:17:53.177Z,1.67
2022-10-25T05:20:21.657Z,2.28
2022-10-25T05:22:50.050Z,2.38
2022-10-25T05:25:18.793Z,2.42
2022-10-25T05:27:48.323Z,2.42
2022-10-25T05:30:16.864Z,2.67
2022-10-25T05:32:45.580Z,2.00
2022-10-25T05:35:14.364Z,2.65
2022-10-25T05:37:42.548Z,2.80
2022-10-25T05:40:12.678Z,2.50
2022-10-25T05:42:41.180Z,2.30
2022-10-25T05:45:11.698Z,2.85
2022-10-25T05:47:40.182Z,2.58
2022-10-25T05:50:09.123Z,1.95
2022-10-25T05:52:37.454Z,2.72
2022-10-25T05:55:06.914Z,1.98
2022-10-25T05:57:35.645Z,2.35
2022-10-25T06:00:05.387Z,2.33
2022-10-25T06:02:35.803Z,2.25
2022-10-25T06:05:04.124Z,2.58
2022-10-25T06:07:32.982Z,2.35
2022-10-25T06:10:01.512Z,2.50
2022-10-25T06:12:30.016Z,2.70
2022-10-25T06:14:58.754Z,3.38
2022-10-25T06:17:27.250Z,2.55
2022-10-25T06:19:56.886Z,2.50
2022-10-25T06:22:25.476Z,2.95
2022-10-25T06:24:53.949Z,2.90
2022-10-25T06:27:22.396Z,2.78
2022-10-25T06:29:50.567Z,2.50
2022-10-25T06:32:19.068Z,2.72
2022-10-25T06:34:47.552Z,3.63
2022-10-25T06:37:17.104Z,2.47
2022-10-25T06:39:45.596Z,3.33
2022-10-25T06:42:14.144Z,2.53
2022-10-25T06:44:42.789Z,2.75
2022-10-25T06:47:17.295Z,2.40
2022-10-25T06:49:47.056Z,3.33
2022-10-25T06:52:16.580Z,3.22
2022-10-25T06:54:45.057Z,2.60
2022-10-25T06:57:13.397Z,3.00
2022-10-25T06:59:41.914Z,3.00
2022-10-25T07:02:10.918Z,3.22
2022-10-25T07:04:39.549Z,2.65
2022-10-25T07:07:08.131Z,2.72
2022-10-25T07:09:37.660Z,2.67
2022-10-25T07:12:11.465Z,3.33
2022-10-25T07:14:41.096Z,2.63
2022-10-25T07:17:09.614Z,2.45
2022-10-25T07:19:38.152Z,3.42
2022-10-25T07:22:06.398Z,2.55
2022-10-25T07:24:35.061Z,3.42
2022-10-25T07:27:04.970Z,2.90
2022-10-25T07:29:33.464Z,3.42
2022-10-25T07:32:01.995Z,3.38
2022-10-25T07:34:30.663Z,2.78
2022-10-25T07:36:59.140Z,2.25
2022-10-25T07:39:27.623Z,2.60
2022-10-25T07:41:56.187Z,2.30
2022-10-25T07:44:25.863Z,2.65
2022-10-25T07:46:55.475Z,2.70
2022-10-25T07:49:23.675Z,2.13
2022-10-25T07:51:51.860Z,2.20
2022-10-25T07:54:20.102Z,1.80
2022-10-25T07:56:48.583Z,2.13
2022-10-25T07:59:17.149Z,2.10
2022-10-25T08:01:46.776Z,2.53
2022-10-25T08:04:15.411Z,2.25
2022-10-25T08:06:43.643Z,2.00
2022-10-25T08:09:20.279Z,2.40
2022-10-25T08:12:00.364Z,1.85
2022-10-25T08:14:28.615Z,2.72
2022-10-25T08:16:58.167Z,3.60
2022-10-25T08:19:26.624Z,2.78
2022-10-25T08:21:55.190Z,2.25
2022-10-25T08:24:23.396Z,2.25
2022-10-25T08:26:51.575Z,2.03
2022-10-25T08:29:19.823Z,1.23
2022-10-25T08:31:48.086Z,1.50
2022-10-25T08:34:17.680Z,1.33
2022-10-25T08:36:45.880Z,1.45
2022-10-25T08:39:14.033Z,0.90
2022-10-25T08:41:52.053Z,1.48
2022-10-25T08:44:35.528Z,0.98
2022-10-25T08:47:08.592Z,1.10
2022-10-25T08:49:52.220Z,1.10
2022-10-25T08:52:27.728Z,1.13
2022-10-25T08:55:01.731Z,1.35
2022-10-25T08:57:35.775Z,1.42
2022-10-25T09:00:11.881Z,0.95
2022-10-25T09:02:49.386Z,1.13
2022-10-25T09:05:37.439Z,1.38
2022-10-25T09:08:27.641Z,1.00
2022-10-25T09:11:06.219Z,1.23
2022-10-25T09:13:49.892Z,0.88
2022-10-25T09:16:20.238Z,0.88
2022-10-25T09:18:51.990Z,0.93
2022-10-25T09:21:27.409Z,1.20
2022-10-25T09:24:00.829Z,0.93
2022-10-25T09:26:42.245Z,1.55
2022-10-25T09:29:24.472Z,1.30
2022-10-25T09:31:58.787Z,1.40
2022-10-25T09:34:32.944Z,2.35
2022-10-25T09:37:17.689Z,1.33
2022-10-25T09:39:50.306Z,1.00
2022-10-25T09:42:26.115Z,1.38
2022-10-25T09:44:59.599Z,0.55
2022-10-25T09:47:40.223Z,1.00
2022-10-25T09:50:16.907Z,1.55
2022-10-25T09:55:40.580Z,1.13
2022-10-25T09:58:17.845Z,1.30
2022-10-25T10:00:46.280Z,0.90
2022-10-25T10:03:15.952Z,0.95
2022-10-25T10:05:51.924Z,1.20
2022-10-25T10:08:21.776Z,0.90
2022-10-25T10:10:51.817Z,0.95
2022-10-25T10:13:30.271Z,1.13
2022-10-25T10:16:01.062Z,0.98
2022-10-25T10:18:32.077Z,1.38
2022-10-25T10:21:13.992Z,1.33
2022-10-25T10:23:53.055Z,0.80
2022-10-25T10:26:28.170Z,0.73
2022-10-25T10:29:14.113Z,1.50
2022-10-25T10:31:50.824Z,1.80
2022-10-25T10:34:27.037Z,1.48
2022-10-25T10:37:08.775Z,1.60
2022-10-25T10:39:50.558Z,1.95
2022-10-25T10:42:21.898Z,2.10
2022-10-25T10:45:17.636Z,1.48
2022-10-25T10:47:56.553Z,1.95
2022-10-25T10:50:28.707Z,1.90
2022-10-25T10:53:01.014Z,1.15
2022-10-25T10:55:34.530Z,0.68
2022-10-25T10:58:06.627Z,1.30
2022-10-25T11:00:35.888Z,1.80
2022-10-25T11:03:04.482Z,1.27
2022-10-25T11:05:35.523Z,1.45
2022-10-25T11:08:18.698Z,1.30
2022-10-25T11:10:48.385Z,2.08
2022-10-25T11:13:18.815Z,1.38
2022-10-25T11:16:20.264Z,1.50
2022-10-25T11:19:15.945Z,1.83
2022-10-25T11:22:06.732Z,1.55
2022-10-25T11:24:46.329Z,1.60
2022-10-25T11:27:25.047Z,2.95
2022-10-25T11:30:14.069Z,1.50
2022-10-25T11:33:22.540Z,1.42
2022-10-25T11:36:06.943Z,1.58
2022-10-25T11:38:58.146Z,1.50
2022-10-25T11:41:43.095Z,1.73
2022-10-25T11:44:41.701Z,1.20
2022-10-25T11:47:21.539Z,1.58
2022-10-25T11:50:04.783Z,1.38
2022-10-25T11:53:04.042Z,0.70
2022-10-25T11:55:40.173Z,1.00
2022-10-25T11:58:26.160Z,0.95
2022-10-25T12:01:07.933Z,1.30
2022-10-25T12:03:59.963Z,1.05
2022-10-25T12:06:41.655Z,2.05
2022-10-25T12:09:24.271Z,1.10
2022-10-25T12:12:00.953Z,0.77
2022-10-25T12:14:35.027Z,1.15
2022-10-25T12:17:08.763Z,1.42
2022-10-25T12:19:46.214Z,0.80
2022-10-25T12:22:21.151Z,0.90
2022-10-25T12:24:57.371Z,0.82
2022-10-25T12:27:27.551Z,1.10
2022-10-25T12:29:59.315Z,1.20
2022-10-25T12:32:45.486Z,0.60
2022-10-25T12:35:22.792Z,1.05
2022-10-25T12:37:58.816Z,0.80
2022-10-25T12:40:29.575Z,0.70
2022-10-25T12:43:06.760Z,1.02
2022-10-25T12:46:06.407Z,0.93
2022-10-25T12:49:08.264Z,0.60
2022-10-25T12:52:20.036Z,0.68
2022-10-25T12:55:27.266Z,0.60
2022-10-25T12:58:21.946Z,1.05
2022-10-25T13:01:15.693Z,0.70
2022-10-25T13:04:32.772Z,0.60
2022-10-25T13:07:04.085Z,0.47
2022-10-25T13:09:35.862Z,0.57
2022-10-25T13:12:08.538Z,1.10
2022-10-25T13:14:39.707Z,0.55
2022-10-25T13:18:00.789Z,0.50
2022-10-25T13:20:52.992Z,0.70
2022-10-25T13:23:59.709Z,0.40
2022-10-25T13:27:15.201Z,0.70
2022-10-25T13:30:13.134Z,0.63
2022-10-25T13:32:43.082Z,0.60
2022-10-25T13:35:59.943Z,0.65
2022-10-25T13:38:33.224Z,0.60
2022-10-25T13:41:12.033Z,0.60
2022-10-25T13:44:00.392Z,0.30
2022-10-25T13:46:36.395Z,0.57
2022-10-25T13:49:27.299Z,0.38
2022-10-25T13:51:58.905Z,0.50
2022-10-25T13:54:47.161Z,0.60
2022-10-25T13:57:51.315Z,0.43
2022-10-25T14:00:41.560Z,0.50
2022-10-25T14:03:36.112Z,0.50
2022-10-25T14:06:23.735Z,0.70
2022-10-25T14:09:20.712Z,0.38
2022-10-25T14:11:53.053Z,0.40
2022-10-25T14:14:29.538Z,0.60
2022-10-25T14:17:15.928Z,0.80
2022-10-25T14:19:49.252Z,0.77
2022-10-25T14:22:21.398Z,0.63
2022-10-25T14:24:53.968Z,0.57
2022-10-25T14:27:31.629Z,0.60
2022-10-25T14:30:31.247Z,0.47
2022-10-25T14:33:03.634Z,0.20
2022-10-25T14:35:35.347Z,0.70
2022-10-25T14:38:15.296Z,0.65
2022-10-25T14:40:52.893Z,0.70
2022-10-25T14:43:30.801Z,0.60
2022-10-25T14:46:13.188Z,0.50
2022-10-25T14:48:42.648Z,0.47
2022-10-25T14:51:22.119Z,0.50
2022-10-25T14:53:58.667Z,0.43
2022-10-25T14:56:33.531Z,0.70
2022-10-25T14:59:03.663Z,0.63
2022-10-25T15:01:31.982Z,0.40
2022-10-25T15:04:02.003Z,0.80
2022-10-25T15:06:32.769Z,0.98
2022-10-25T15:12:18.016Z,0.50
2022-10-25T15:14:48.225Z,0.28
2022-10-25T15:17:26.544Z,0.60
2022-10-25T15:20:24.900Z,0.45
2022-10-25T15:23:01.648Z,0.40
2022-10-25T15:25:33.807Z,0.73
2022-10-25T15:28:13.015Z,0.30
2022-10-25T15:30:57.772Z,0.57
2022-10-25T15:33:30.136Z,0.57
2022-10-25T15:36:01.319Z,1.10
2022-10-25T15:38:47.970Z,0.65
2022-10-25T15:41:19.754Z,0.73
2022-10-25T15:43:49.378Z,0.50
2022-10-25T15:46:29.340Z,1.45
2022-10-25T15:48:59.594Z,0.75
2022-10-25T15:51:30.953Z,0.95
2022-10-25T15:53:59.648Z,1.15
2022-10-25T15:56:29.037Z,0.82
2022-10-25T15:59:01.335Z,0.43
2022-10-25T16:01:29.758Z,0.63
2022-10-25T16:03:58.348Z,0.40
2022-10-25T16:06:26.939Z,0.93
2022-10-25T16:08:55.466Z,0.90
2022-10-25T16:11:23.933Z,1.02
2022-10-25T16:13:54.035Z,1.08
2022-10-25T16:16:42.297Z,4.05
2022-10-25T16:19:15.593Z,2.53
2022-10-25T16:21:44.573Z,1.92
2022-10-25T16:24:13.554Z,1.88
2022-10-25T16:26:45.319Z,1.98
2022-10-25T16:29:17.621Z,2.25
2022-10-25T16:31:47.473Z,1.60
2022-10-25T16:34:17.267Z,1.75
2022-10-25T16:36:46.014Z,1.48
2022-10-25T16:39:14.590Z,1.75
2022-10-25T16:41:45.207Z,2.53
2022-10-25T16:44:16.652Z,1.92
2022-10-25T16:46:46.828Z,2.10
2022-10-25T16:49:15.352Z,1.77
2022-10-25T16:51:44.210Z,1.05
2022-10-25T16:54:15.223Z,1.92
2022-10-25T16:56:44.087Z,0.93
2022-10-25T16:59:12.567Z,1.27
2022-10-25T17:01:44.550Z,1.42
2022-10-25T17:04:15.711Z,1.00
2022-10-25T17:06:44.253Z,0.77
2022-10-25T17:09:13.016Z,1.33
2022-10-25T17:11:41.640Z,3.88
2022-10-25T17:14:10.527Z,3.70
2022-10-25T17:16:44.370Z,1.50
2022-10-25T17:19:14.345Z,2.17
2022-10-25T17:21:42.558Z,3.65
2022-10-25T17:24:10.781Z,3.60
2022-10-25T17:26:39.985Z,4.70
2022-10-25T17:29:08.484Z,1.88
2022-10-25T17:31:37.096Z,2.13
2022-10-25T17:34:05.765Z,2.63
2022-10-25T17:36:35.369Z,2.25
2022-10-25T17:39:04.255Z,2.47
2022-10-25T17:41:32.777Z,1.88
2022-10-25T17:44:01.305Z,1.85
2022-10-25T17:46:32.360Z,1.55
2022-10-25T17:49:05.629Z,1.58
2022-10-25T17:51:36.458Z,2.13
2022-10-25T17:54:04.972Z,2.05
2022-10-25T17:56:33.471Z,2.00
2022-10-25T17:59:04.376Z,1.75
2022-10-25T18:01:36.087Z,1.70
2022-10-25T18:04:05.174Z,3.00
2022-10-25T18:06:34.830Z,1.95
2022-10-25T18:09:04.683Z,2.70
2022-10-25T18:11:33.332Z,1.88
2022-10-25T18:14:02.919Z,1.83
2022-10-25T18:16:31.934Z,1.65
2022-10-25T18:19:02.005Z,2.13
2022-10-25T18:21:31.764Z,1.75
2022-10-25T18:24:04.835Z,1.70
2022-10-25T18:26:34.378Z,1.58
2022-10-25T18:29:02.875Z,2.40
2022-10-25T18:31:31.487Z,2.22
2022-10-25T18:34:03.333Z,2.25
2022-10-25T18:36:32.641Z,2.15
2022-10-25T18:39:02.196Z,2.35
2022-10-25T18:41:33.709Z,2.28
2022-10-25T18:44:03.346Z,2.20
2022-10-25T18:46:32.729Z,1.85
2022-10-25T18:49:01.648Z,1.48
2022-10-25T18:51:31.864Z,1.70
2022-10-25T18:54:03.564Z,1.98
2022-10-25T18:56:32.858Z,2.58
2022-10-25T18:59:01.273Z,5.68
2022-10-25T19:01:32.715Z,3.97
2022-10-25T19:04:02.544Z,2.38
2022-10-25T19:06:31.300Z,4.20
2022-10-25T19:09:02.841Z,4.43
2022-10-25T19:11:32.704Z,2.40
2022-10-25T19:14:01.363Z,2.28
2022-10-25T19:16:29.850Z,2.97
2022-10-25T19:18:58.011Z,3.72
2022-10-25T19:21:26.487Z,4.18
2022-10-25T19:23:55.135Z,3.33
2022-10-25T19:26:24.720Z,2.70
2022-10-25T19:28:58.492Z,2.78
2022-10-25T19:31:28.534Z,6.45
2022-10-25T19:34:00.213Z,9.32
2022-10-25T19:36:29.063Z,8.57
2022-10-25T19:38:57.751Z,5.82
2022-10-25T19:41:27.989Z,5.65
2022-10-25T19:43:57.300Z,6.45
2022-10-25T19:46:26.321Z,6.50
2022-10-25T19:48:56.198Z,4.82
2022-10-25T19:51:24.696Z,3.58
2022-10-25T19:53:53.307Z,3.50
2022-10-25T19:56:23.447Z,2.97
2022-10-25T19:58:53.050Z,3.13
2022-10-25T20:01:24.095Z,3.15
2022-10-25T20:03:55.627Z,2.20
2022-10-25T20:06:27.011Z,2.72
2022-10-25T20:08:57.249Z,2.40
2022-10-25T20:11:27.099Z,2.72
2022-10-25T20:13:59.127Z,2.25
2022-10-25T20:16:28.841Z,3.10
2022-10-25T20:18:57.726Z,2.50
2022-10-25T20:21:30.738Z,2.88
2022-10-25T20:24:01.625Z,3.53
2022-10-25T20:26:31.781Z,3.40
2022-10-25T20:29:05.895Z,2.60
2022-10-25T20:31:35.511Z,2.30
2022-10-25T20:34:05.171Z,2.53
2022-10-25T20:36:33.734Z,2.95
2022-10-25T20:39:02.404Z,2.47
2022-10-25T20:41:31.905Z,2.60
2022-10-25T20:44:03.737Z,3.30
2022-10-25T20:46:33.720Z,3.15
2022-10-25T20:49:03.333Z,3.08
2022-10-25T20:51:31.568Z,3.25
2022-10-25T20:54:00.080Z,3.38
2022-10-25T20:56:29.142Z,3.95
2022-10-25T20:58:57.618Z,3.53
2022-10-25T21:01:27.254Z,3.50
2022-10-25T21:03:55.920Z,5.75
2022-10-25T21:06:24.652Z,6.60
2022-10-25T21:08:53.179Z,3.55
2022-10-25T21:11:21.423Z,3.60
2022-10-25T21:13:49.883Z,3.67
2022-10-25T21:16:18.472Z,3.47
2022-10-25T21:18:48.046Z,3.38
2022-10-25T21:21:19.974Z,3.88
2022-10-25T21:23:49.261Z,3.45
2022-10-25T21:26:18.036Z,3.42
2022-10-25T21:28:46.573Z,3.80
2022-10-25T21:31:16.718Z,3.20
2022-10-25T21:33:51.150Z,3.13
2022-10-25T21:36:21.295Z,3.28
2022-10-25T21:38:50.184Z,3.55
2022-10-25T21:41:23.211Z,3.13
2022-10-25T21:43:51.879Z,3.50
2022-10-25T21:46:21.990Z,4.30
2022-10-25T21:48:52.148Z,3.30
2022-10-25T21:51:21.994Z,3.83
2022-10-25T21:53:50.215Z,3.05
2022-10-25T21:56:20.516Z,3.78
2022-10-25T21:58:50.780Z,3.58
2022-10-25T22:01:21.853Z,3.88
2022-10-25T22:03:52.201Z,3.15
2022-10-25T22:06:27.152Z,2.88
2022-10-25T22:08:56.430Z,2.88
2022-10-25T22:11:26.616Z,3.20
2022-10-25T22:14:00.330Z,3.08
2022-10-25T22:16:30.259Z,3.00
2022-10-25T22:19:02.947Z,3.70
2022-10-25T22:21:33.606Z,3.50
2022-10-25T22:24:02.123Z,3.72
2022-10-25T22:26:30.812Z,2.92
2022-10-25T22:29:00.427Z,2.70
2022-10-25T22:31:31.032Z,2.42
2022-10-25T22:34:02.738Z,2.53
2022-10-25T22:36:34.486Z,2.92
2022-10-25T22:39:03.573Z,2.50
2022-10-25T22:41:32.076Z,2.63
2022-10-25T22:44:01.308Z,3.00
2022-10-25T22:46:32.251Z,2.88
2022-10-25T22:49:06.766Z,2.53
2022-10-25T22:51:35.527Z,2.83
2022-10-25T22:54:04.069Z,3.03
2022-10-25T22:56:33.249Z,3.08
2022-10-25T22:59:03.736Z,3.55
2022-10-25T23:01:33.633Z,3.38
2022-10-25T23:04:05.980Z,3.05
2022-10-25T23:06:37.660Z,3.28
2022-10-25T23:09:08.986Z,2.65
2022-10-25T23:11:39.437Z,3.50
2022-10-25T23:14:13.324Z,3.42
2022-10-25T23:16:45.660Z,3.30
2022-10-25T23:19:15.378Z,3.55
2022-10-25T23:21:43.673Z,3.30
2022-10-25T23:24:12.229Z,3.15
2022-10-25T23:26:40.820Z,3.08
2022-10-25T23:29:11.753Z,2.70
2022-10-25T23:31:40.026Z,3.25
2022-10-25T23:34:08.658Z,3.15
2022-10-25T23:36:38.267Z,3.00
2022-10-25T23:39:09.049Z,2.60
2022-10-25T23:41:37.782Z,2.92
2022-10-25T23:44:06.177Z,3.15
2022-10-25T23:46:34.464Z,3.85
2022-10-25T23:49:02.632Z,3.63
2022-10-25T23:51:31.218Z,2.55
2022-10-25T23:54:00.765Z,3.00
2022-10-25T23:56:28.987Z,3.22
2022-10-25T23:58:57.203Z,2.78
